Time;durP1;ratioP1;P1;durP2;ratioP2;P2;SDS_P1;SDS_P2;PMS_P1;PMS_P2;Temp;Humidity;BMP_temperature;BMP_pressure;BME280_temperature;BME280_humidity;BME280_pressure;Samples;Min_cycle;Max_cycle;Signal;HPM_P1;HPM_P2
2022/03/15 00:04:51;;;;;;;52.40;31.20;;;;;;;0.38;49.73;100829.23;444492;1270;163512;-61
2022/03/15 00:14:56;;;;;;;53.30;33.50;;;;;;;0.25;49.94;100836.16;432507;1270;141239;-61
2022/03/15 00:25:03;;;;;;;50.50;31.20;;;;;;;0.15;49.88;100825.32;441653;1269;141887;-62
2022/03/15 00:35:11;;;;;;;57.50;34.90;;;;;;;0.08;50.14;100826.17;447713;1268;141760;-60
2022/03/15 00:45:17;;;;;;;66.10;36.90;;;;;;;-0.06;51.20;100835.48;446881;1269;144276;-59
2022/03/15 00:55:23;;;;;;;62.90;36.80;;;;;;;-0.18;51.30;100831.02;447516;1270;142372;-60
2022/03/15 01:05:29;;;;;;;76.90;47.30;;;;;;;-0.38;52.03;100825.32;447577;1269;142332;-60
2022/03/15 01:15:41;;;;;;;55.90;33.20;;;;;;;-0.57;52.47;100819.10;446882;1269;142713;-60
2022/03/15 01:25:47;;;;;;;55.60;33.30;;;;;;;-0.60;52.62;100819.26;434524;1270;145018;-60
2022/03/15 01:35:54;;;;;;;60.50;36.70;;;;;;;-0.60;52.93;100821.67;434804;1269;141140;-60
2022/03/15 01:46:00;;;;;;;50.80;31.10;;;;;;;-0.43;53.15;100821.89;436060;1270;142818;-59
2022/03/15 01:56:07;;;;;;;51.20;31.10;;;;;;;-0.16;53.38;100817.77;447580;1269;141698;-60
2022/03/15 02:06:12;;;;;;;55.60;32.90;;;;;;;-0.03;52.58;100817.23;447050;1269;143641;-60
2022/03/15 02:16:18;;;;;;;54.40;30.50;;;;;;;-0.16;53.32;100828.27;447604;1269;141874;-59
2022/03/15 02:26:24;;;;;;;56.50;34.50;;;;;;;-0.47;54.07;100834.42;447726;1268;143048;-60
2022/03/15 02:36:30;;;;;;;50.10;31.30;;;;;;;-0.73;54.65;100833.68;437037;1269;141960;-62
2022/03/15 02:46:39;;;;;;;48.50;29.70;;;;;;;-0.91;55.04;100830.19;441085;1269;141828;-60
2022/03/15 02:56:47;;;;;;;53.90;34.30;;;;;;;-0.82;55.52;100835.21;437777;1270;141265;-61
2022/03/15 03:06:54;;;;;;;56.40;33.00;;;;;;;-0.42;55.41;100833.56;432843;1270;143165;-59
2022/03/15 03:17:00;;;;;;;49.60;27.90;;;;;;;-0.10;55.62;100836.86;439680;1270;142361;-61
2022/03/15 03:27:07;;;;;;;51.70;28.10;;;;;;;0.10;55.37;100826.70;447482;1270;141758;-59
2022/03/15 03:37:13;;;;;;;43.20;25.40;;;;;;;0.24;55.00;100832.88;447636;1268;141350;-60
2022/03/15 03:47:19;;;;;;;40.30;23.20;;;;;;;0.32;54.98;100838.73;447748;1270;146120;-60
2022/03/15 03:57:25;;;;;;;38.50;24.20;;;;;;;0.31;54.86;100845.11;446686;1270;141390;-60
2022/03/15 04:07:31;;;;;;;32.90;21.40;;;;;;;0.45;54.97;100825.95;447678;1269;141154;-60
2022/03/15 04:17:36;;;;;;;33.50;19.40;;;;;;;0.29;55.01;100811.67;447761;1269;141709;-59
2022/03/15 04:27:42;;;;;;;31.10;21.60;;;;;;;0.08;55.34;100821.02;446924;1270;141979;-59
2022/03/15 04:37:49;;;;;;;42.50;24.40;;;;;;;0.07;55.67;100831.17;447658;1270;142331;-59
2022/03/15 04:47:55;;;;;;;33.90;22.00;;;;;;;0.00;55.93;100828.25;447518;1270;141409;-59
2022/03/15 04:58:01;;;;;;;39.40;23.30;;;;;;;0.10;56.19;100828.76;446831;1269;142470;-61
2022/03/15 05:08:07;;;;;;;39.50;21.50;;;;;;;0.39;56.45;100823.04;447475;1269;143025;-60
2022/03/15 05:18:13;;;;;;;42.50;23.00;;;;;;;0.62;56.62;100811.95;437911;1269;141748;-61
2022/03/15 05:28:18;;;;;;;37.60;22.20;;;;;;;1.11;56.73;100819.84;447667;1269;141253;-61
2022/03/15 05:38:24;;;;;;;39.00;24.30;;;;;;;1.57;56.58;100822.85;447739;1269;142005;-61
2022/03/15 05:48:30;;;;;;;26.20;18.50;;;;;;;2.04;56.62;100821.61;442295;1270;143859;-59
2022/03/15 05:58:36;;;;;;;29.30;17.50;;;;;;;4.34;55.91;100824.42;437211;1269;142993;-61
2022/03/15 06:08:42;;;;;;;29.30;17.80;;;;;;;6.29;52.77;100820.45;435324;1270;141201;-60
2022/03/15 06:18:47;;;;;;;24.80;17.00;;;;;;;5.37;53.36;100828.41;446888;1269;142121;-60
2022/03/15 06:28:53;;;;;;;21.50;16.10;;;;;;;4.91;54.68;100833.73;447550;1269;141936;-60
2022/03/15 06:38:59;;;;;;;25.40;17.40;;;;;;;5.40;54.92;100829.02;439440;1270;145556;-60
2022/03/15 06:49:05;;;;;;;23.60;16.70;;;;;;;6.58;54.18;100826.67;436329;1270;142182;-59
2022/03/15 06:59:11;;;;;;;23.30;16.10;;;;;;;7.21;53.60;100840.55;447389;1271;140963;-60
2022/03/15 07:09:16;;;;;;;23.60;17.00;;;;;;;9.38;52.63;100840.36;446781;1270;141969;-60
2022/03/15 07:19:22;;;;;;;23.90;16.10;;;;;;;10.37;50.08;100845.77;442721;1270;142301;-61
2022/03/15 07:29:29;;;;;;;25.30;16.90;;;;;;;9.20;50.53;100847.84;436662;1270;142311;-60
2022/03/15 07:39:35;;;;;;;19.80;15.40;;;;;;;10.16;50.70;100836.85;435239;1270;142113;-60
2022/03/15 07:49:41;;;;;;;15.60;12.80;;;;;;;10.02;49.95;100841.98;439326;1270;143878;-60
2022/03/15 07:59:48;;;;;;;21.40;13.20;;;;;;;9.15;51.46;100834.23;447377;1270;142120;-60
2022/03/15 08:09:54;;;;;;;17.60;12.80;;;;;;;8.45;52.58;100828.35;446909;1269;144760;-60
2022/03/15 08:20:00;;;;;;;17.60;12.70;;;;;;;7.81;54.23;100840.11;447569;1270;144917;-60
2022/03/15 08:30:09;;;;;;;20.50;13.90;;;;;;;7.71;55.23;100840.26;447585;1269;140966;-63
2022/03/15 08:40:16;;;;;;;30.60;15.10;;;;;;;8.17;55.37;100837.86;436084;1270;141060;-67
2022/03/15 08:50:22;;;;;;;18.90;13.60;;;;;;;8.99;54.95;100825.94;447625;1270;141702;-65
2022/03/15 09:00:28;;;;;;;22.20;13.90;;;;;;;10.04;54.43;100821.27;446726;1270;141106;-68
2022/03/15 09:10:42;;;;;;;17.20;13.00;;;;;;;11.61;52.68;100813.57;447623;1269;141813;-66
2022/03/15 09:20:48;;;;;;;16.50;12.30;;;;;;;11.82;51.55;100808.32;447619;1269;141489;-67
2022/03/15 09:30:54;;;;;;;15.20;11.50;;;;;;;12.62;51.10;100796.16;446811;1268;141136;-66
2022/03/15 09:41:05;;;;;;;16.10;11.00;;;;;;;13.02;49.85;100793.72;437062;1270;143990;-62
2022/03/15 09:51:14;;;;;;;14.60;11.30;;;;;;;12.98;49.28;100784.44;447488;1269;141900;-62
2022/03/15 10:01:20;;;;;;;13.50;10.00;;;;;;;12.93;49.40;100764.70;447024;1270;210620;-63
2022/03/15 10:11:26;;;;;;;14.30;8.80;;;;;;;13.17;48.93;100763.85;436636;1270;141978;-62
2022/03/15 10:21:44;;;;;;;10.60;8.20;;;;;;;13.35;48.45;100754.05;430240;1270;164391;-64
2022/03/15 10:31:51;;;;;;;11.80;7.70;;;;;;;13.33;48.13;100750.86;447770;1268;141696;-69
2022/03/15 10:42:01;;;;;;;11.90;7.70;;;;;;;13.25;47.92;100746.40;443705;1270;142671;-71
2022/03/15 10:52:07;;;;;;;12.10;9.30;;;;;;;13.10;47.45;100741.58;446920;1268;142555;-62
2022/03/15 11:02:13;;;;;;;13.00;9.50;;;;;;;12.42;48.40;100738.63;447790;1269;153315;-60
2022/03/15 11:12:20;;;;;;;12.20;9.50;;;;;;;12.46;48.69;100727.15;446959;1269;141570;-60
2022/03/15 11:22:30;;;;;;;10.40;7.80;;;;;;;12.48;48.72;100715.27;447829;1269;142486;-59
2022/03/15 11:32:37;;;;;;;17.30;8.70;;;;;;;12.66;48.25;100697.27;447798;1269;141026;-67
2022/03/15 11:42:46;;;;;;;12.10;8.30;;;;;;;12.93;47.63;100686.85;447052;1269;142650;-63
2022/03/15 11:53:03;;;;;;;7.90;6.90;;;;;;;13.07;47.72;100673.58;447529;1268;142255;-73
2022/03/15 12:03:10;;;;;;;8.70;6.80;;;;;;;13.09;47.56;100660.75;435861;1270;239923;-78
2022/03/15 12:13:17;;;;;;;8.30;5.60;;;;;;;12.15;47.99;100654.49;433794;1270;140624;-66
2022/03/15 12:23:26;;;;;;;11.20;5.00;;;;;;;11.74;48.46;100640.18;447719;1269;140795;-79
2022/03/15 12:33:34;;;;;;;10.50;5.40;;;;;;;11.74;48.63;100631.73;436073;1269;144152;-68
2022/03/15 12:43:40;;;;;;;10.10;6.40;;;;;;;11.94;48.36;100620.52;447762;1269;141847;-63
2022/03/15 12:53:48;;;;;;;8.30;6.60;;;;;;;11.68;48.41;100605.38;447763;1267;140574;-63
2022/03/15 13:03:54;;;;;;;;;;;;;;;11.85;48.56;100592.03;446973;1270;141667;-69
2022/03/15 13:14:00;;;;;;;11.70;7.60;;;;;;;12.11;48.23;100576.62;444856;1269;128482;-65
2022/03/15 13:24:12;;;;;;;7.70;6.40;;;;;;;12.26;47.95;100577.23;447637;1269;141514;-70
2022/03/15 13:34:23;;;;;;;15.50;6.60;;;;;;;12.59;46.91;100563.61;447778;1269;142005;-72
2022/03/15 13:44:32;;;;;;;9.90;5.10;;;;;;;12.36;46.69;100560.36;447815;1269;140937;-74
2022/03/15 13:54:50;;;;;;;17.50;6.50;;;;;;;12.51;46.27;100555.84;441432;1268;141830;-73
2022/03/15 14:05:04;;;;;;;8.60;6.30;;;;;;;12.36;46.55;100544.21;438761;1269;145584;-66
2022/03/15 14:15:13;;;;;;;12.10;6.60;;;;;;;12.48;46.28;100539.34;447788;1269;141616;-68
2022/03/15 14:25:22;;;;;;;24.80;8.20;;;;;;;12.35;46.14;100530.92;447645;1269;143608;-80
2022/03/15 14:35:31;;;;;;;9.80;5.80;;;;;;;12.32;46.29;100518.47;447792;1267;142281;-74
2022/03/15 14:45:37;;;;;;;7.70;6.50;;;;;;;12.43;46.11;100506.77;446919;1268;142360;-62
2022/03/15 14:55:44;;;;;;;8.40;6.10;;;;;;;12.06;45.95;100492.83;447701;1269;179387;-66
2022/03/15 15:05:54;;;;;;;8.60;6.70;;;;;;;11.99;46.38;100481.96;447665;1269;141867;-65
2022/03/15 15:16:01;;;;;;;17.90;7.30;;;;;;;11.93;46.59;100477.76;446357;1269;141404;-70
2022/03/15 15:26:07;;;;;;;13.10;6.40;;;;;;;11.81;46.79;100464.16;446692;1268;140620;-60
2022/03/15 15:36:13;;;;;;;11.60;6.90;;;;;;;11.82;46.75;100446.40;446662;1269;141682;-61
2022/03/15 15:46:20;;;;;;;9.20;6.00;;;;;;;11.53;46.77;100435.36;447255;1270;142186;-62
2022/03/15 15:56:31;;;;;;;21.10;7.40;;;;;;;11.28;47.10;100430.89;447692;1268;142463;-62
2022/03/15 16:06:36;;;;;;;17.50;8.10;;;;;;;10.97;47.55;100426.03;446800;1269;141393;-60
2022/03/15 16:16:43;;;;;;;16.20;8.10;;;;;;;10.70;48.08;100433.88;447618;1268;143666;-62
2022/03/15 16:26:49;;;;;;;12.90;8.40;;;;;;;10.36;48.66;100430.49;445200;1268;142675;-61
2022/03/15 16:36:55;;;;;;;18.70;7.50;;;;;;;10.02;49.16;100429.18;446968;1268;141012;-61
2022/03/15 16:47:03;;;;;;;17.90;8.30;;;;;;;9.67;49.92;100426.07;447544;1269;141195;-61
2022/03/15 16:57:13;;;;;;;11.70;8.10;;;;;;;9.43;50.14;100418.43;446932;1269;144247;-62
2022/03/15 17:07:19;;;;;;;25.00;13.80;;;;;;;9.24;50.69;100408.48;447717;1269;141526;-60
2022/03/15 17:17:25;;;;;;;28.40;14.60;;;;;;;9.04;51.38;100403.25;447386;1269;141705;-61
2022/03/15 17:27:34;;;;;;;20.00;14.70;;;;;;;8.78;52.33;100397.19;445644;1270;141440;-61
2022/03/15 17:37:39;;;;;;;28.30;15.80;;;;;;;8.54;53.00;100386.52;447880;1268;141275;-61
2022/03/15 17:47:47;;;;;;;20.60;15.20;;;;;;;8.31;54.34;100374.05;447520;1270;141232;-62
2022/03/15 17:57:57;;;;;;;22.50;16.60;;;;;;;8.03;55.60;100355.32;446436;1270;143487;-61
2022/03/15 18:08:03;;;;;;;21.90;17.30;;;;;;;7.76;56.81;100344.55;447761;1269;143382;-61
2022/03/15 18:18:27;;;;;;;22.00;17.30;;;;;;;7.57;57.53;100341.98;442822;1269;141976;-60
2022/03/15 18:28:37;;;;;;;25.30;19.50;;;;;;;7.32;58.27;100342.41;447592;1269;141848;-59
2022/03/15 18:38:44;;;;;;;26.80;20.10;;;;;;;7.12;58.97;100331.66;447340;1269;142964;-59
2022/03/15 18:48:50;;;;;;;27.90;21.10;;;;;;;7.10;59.63;100305.13;443193;1270;142735;-60
2022/03/15 18:58:57;;;;;;;26.20;20.80;;;;;;;7.18;59.80;100320.65;430795;1270;141906;-60
2022/03/15 19:09:03;;;;;;;29.80;22.40;;;;;;;7.19;59.97;100343.27;435876;1269;142419;-59
2022/03/15 19:19:10;;;;;;;34.30;22.90;;;;;;;7.11;60.17;100311.52;446563;1270;141997;-60
2022/03/15 19:29:17;;;;;;;28.20;22.10;;;;;;;7.03;60.54;100302.78;447512;1270;141997;-60
2022/03/15 19:39:23;;;;;;;29.50;22.00;;;;;;;6.97;60.81;100299.52;446913;1269;141509;-60
2022/03/15 19:49:30;;;;;;;36.00;25.50;;;;;;;6.99;61.07;100297.35;447669;1270;142416;-60
2022/03/15 19:59:36;;;;;;;31.50;23.50;;;;;;;6.99;61.23;100277.48;443983;1270;142302;-61
2022/03/15 20:09:43;;;;;;;31.00;23.80;;;;;;;6.90;61.33;100272.44;442846;1270;141984;-60
2022/03/15 20:19:49;;;;;;;36.40;26.20;;;;;;;6.77;61.71;100238.98;434835;1271;142073;-60
2022/03/15 20:29:58;;;;;;;32.70;23.60;;;;;;;6.70;61.92;100241.86;434224;1270;141189;-60
2022/03/15 20:40:04;;;;;;;30.00;22.40;;;;;;;6.68;62.04;100234.60;436346;1270;143487;-60
2022/03/15 20:50:10;;;;;;;30.20;23.20;;;;;;;6.72;62.04;100225.79;444242;1270;143033;-61
2022/03/15 21:00:18;;;;;;;35.00;22.30;;;;;;;6.74;61.99;100226.57;445817;1269;142699;-60
2022/03/15 21:10:26;;;;;;;25.60;21.10;;;;;;;6.66;62.12;100217.33;435910;1270;141626;-65
2022/03/15 21:20:34;;;;;;;30.60;22.60;;;;;;;6.52;62.19;100200.09;434501;1271;140420;-65
2022/03/15 21:30:40;;;;;;;30.90;22.20;;;;;;;6.44;62.44;100186.45;443389;1270;142993;-65
2022/03/15 21:40:46;;;;;;;29.00;22.40;;;;;;;6.48;62.33;100174.66;436550;1271;141558;-64
2022/03/15 21:50:55;;;;;;;30.80;24.10;;;;;;;6.43;62.46;100184.39;431597;1270;142154;-64
2022/03/15 22:01:01;;;;;;;28.10;22.90;;;;;;;6.32;62.47;100178.03;446622;1269;182395;-66
2022/03/15 22:11:09;;;;;;;25.40;20.60;;;;;;;6.22;62.80;100176.48;447591;1270;140987;-65
2022/03/15 22:21:16;;;;;;;26.30;21.30;;;;;;;6.23;62.83;100157.83;443098;1269;141754;-63
2022/03/15 23:23:00;;;;;;;35.20;27.90;;;;;;;5.90;63.89;100087.73;440878;1269;142243;-61
2022/03/15 23:33:07;;;;;;;36.80;27.40;;;;;;;5.80;64.12;100073.67;440953;1269;142593;-64
2022/03/15 23:43:13;;;;;;;35.00;25.30;;;;;;;5.80;63.92;100068.29;447745;1269;142041;-66
2022/03/15 23:53:19;;;;;;;31.30;24.90;;;;;;;5.83;64.17;100066.95;447804;1268;141928;-66
